AFR3ML LFPG-KJFK
Flight info
| Callsign | AFR3ML |
|---|---|
| Flight time | N/A |
| Altitude | 30000 |
| Route | ATREX DCT VESAN DCT RATUK DCT SOVAT/N0471F380 L613 SANDY DCT OKSAW DCT TEWXI DCT VATRY DCT DIGAN DCT DOGAL/M082F380 DCT 55N020W 56N030W 56N040W 54N050W DCT NEEKO/N0484F380 N622E TAFFY DCT ENE PARCH4 |
| Aircraft | B772/H-SDE2E3FGHIJ5LORVWXY/LB1D1 |
Departure
| Time | 2026-05-04 19:16 |
|---|---|
| Airport | Charles de Gaulle International Airport (LFPG) |
Arrival
| Time | N/A |
|---|---|
| Airport | John F. Kennedy International Airport (KJFK) |
| Time | Latitude | Longitude | Altitude | Speed | Heading |
|---|---|---|---|---|---|
| 2026-05-04 18:53 | 49.00515 | 2.56051 | 359 ft | 0 kts | 157° |
| 2026-05-04 18:56 | 49.00520 | 2.56047 | 359 ft | 3 kts | 157° |
| 2026-05-04 18:57 | 49.00538 | 2.56036 | 361 ft | 3 kts | 157° |
| 2026-05-04 18:57 | 49.00556 | 2.56026 | 363 ft | 3 kts | 184° |
| 2026-05-04 18:57 | 49.00575 | 2.56036 | 364 ft | 3 kts | 229° |
| 2026-05-04 18:57 | 49.00581 | 2.56049 | 368 ft | 0 kts | 248° |
| 2026-05-04 19:01 | 49.00579 | 2.56041 | 359 ft | 5 kts | 249° |
| 2026-05-04 19:01 | 49.00568 | 2.55936 | 364 ft | 13 kts | 266° |
| 2026-05-04 19:01 | 49.00563 | 2.55802 | 367 ft | 13 kts | 267° |
| 2026-05-04 19:01 | 49.00559 | 2.55665 | 364 ft | 13 kts | 267° |
| 2026-05-04 19:02 | 49.00554 | 2.55524 | 361 ft | 13 kts | 267° |
| 2026-05-04 19:02 | 49.00551 | 2.55384 | 365 ft | 13 kts | 273° |
| 2026-05-04 19:02 | 49.00596 | 2.55268 | 363 ft | 13 kts | 329° |
| 2026-05-04 19:02 | 49.00685 | 2.55226 | 366 ft | 13 kts | 344° |
| 2026-05-04 19:03 | 49.00774 | 2.55187 | 368 ft | 13 kts | 343° |
| 2026-05-04 19:03 | 49.00864 | 2.55147 | 365 ft | 14 kts | 344° |
| 2026-05-04 19:03 | 49.00929 | 2.55119 | 363 ft | 15 kts | 344° |
| 2026-05-04 19:03 | 49.01072 | 2.55059 | 361 ft | 17 kts | 345° |
| 2026-05-04 19:04 | 49.01147 | 2.55027 | 365 ft | 17 kts | 344° |
| 2026-05-04 19:04 | 49.01260 | 2.54979 | 363 ft | 17 kts | 345° |
| 2026-05-04 19:04 | 49.01373 | 2.54930 | 364 ft | 17 kts | 345° |
| 2026-05-04 19:04 | 49.01489 | 2.54900 | 367 ft | 17 kts | 353° |
| 2026-05-04 19:05 | 49.01601 | 2.54885 | 365 ft | 9 kts | 355° |
| 2026-05-04 19:05 | 49.01644 | 2.54879 | 359 ft | 6 kts | 355° |
| 2026-05-04 19:05 | 49.01647 | 2.54879 | 359 ft | 0 kts | 355° |
| 2026-05-04 19:08 | 49.01659 | 2.54877 | 365 ft | 7 kts | 355° |
| 2026-05-04 19:09 | 49.01730 | 2.54868 | 366 ft | 13 kts | 355° |
| 2026-05-04 19:09 | 49.01824 | 2.54837 | 368 ft | 14 kts | 321° |
| 2026-05-04 19:09 | 49.01838 | 2.54695 | 359 ft | 14 kts | 265° |
| 2026-05-04 19:09 | 49.01831 | 2.54546 | 367 ft | 14 kts | 265° |
| 2026-05-04 19:10 | 49.01824 | 2.54397 | 359 ft | 14 kts | 265° |
| 2026-05-04 19:10 | 49.01815 | 2.54229 | 366 ft | 18 kts | 266° |
| 2026-05-04 19:10 | 49.01805 | 2.54026 | 362 ft | 20 kts | 265° |
| 2026-05-04 19:10 | 49.01793 | 2.53810 | 364 ft | 20 kts | 265° |
| 2026-05-04 19:11 | 49.01782 | 2.53595 | 359 ft | 20 kts | 265° |
| 2026-05-04 19:11 | 49.01769 | 2.53381 | 358 ft | 20 kts | 264° |
| 2026-05-04 19:11 | 49.01756 | 2.53167 | 364 ft | 20 kts | 265° |
| 2026-05-04 19:11 | 49.01745 | 2.52961 | 365 ft | 18 kts | 265° |
| 2026-05-04 19:12 | 49.01735 | 2.52776 | 360 ft | 18 kts | 265° |
| 2026-05-04 19:12 | 49.01719 | 2.52409 | 364 ft | 17 kts | 266° |
| 2026-05-04 19:12 | 49.01709 | 2.52233 | 361 ft | 11 kts | 267° |
| 2026-05-04 19:13 | 49.01738 | 2.52137 | 367 ft | 11 kts | 332° |
| 2026-05-04 19:13 | 49.01812 | 2.52130 | 364 ft | 11 kts | 360° |
| 2026-05-04 19:13 | 49.01886 | 2.52124 | 359 ft | 11 kts | 354° |
| 2026-05-04 19:13 | 49.01952 | 2.52114 | 364 ft | 8 kts | 354° |
| 2026-05-04 19:14 | 49.01971 | 2.52112 | 363 ft | 0 kts | 356° |
| 2026-05-04 19:14 | 49.01988 | 2.52110 | 362 ft | 8 kts | 356° |
| 2026-05-04 19:14 | 49.02057 | 2.52106 | 358 ft | 10 kts | 2° |
| 2026-05-04 19:15 | 49.02106 | 2.52164 | 366 ft | 10 kts | 80° |
| 2026-05-04 19:15 | 49.02120 | 2.52364 | 362 ft | 38 kts | 85° |
| 2026-05-04 19:15 | 49.02162 | 2.53152 | 363 ft | 110 kts | 85° |
| 2026-05-04 19:15 | 49.02249 | 2.54638 | 373 ft | 168 kts | 84° |
| 2026-05-04 19:16 | 49.02344 | 2.56513 | 899 ft | 179 kts | 85° |
| 2026-05-04 19:16 | 49.02408 | 2.58422 | 1731 ft | 180 kts | 86° |
| 2026-05-04 19:16 | 49.02464 | 2.60330 | 2590 ft | 180 kts | 86° |
| 2026-05-04 19:16 | 49.02579 | 2.62316 | 3102 ft | 201 kts | 83° |
| 2026-05-04 19:17 | 49.02747 | 2.64590 | 3328 ft | 230 kts | 83° |
| 2026-05-04 19:17 | 49.02936 | 2.67126 | 3701 ft | 252 kts | 85° |
| 2026-05-04 19:17 | 49.03055 | 2.69759 | 4716 ft | 244 kts | 87° |
| 2026-05-04 19:17 | 49.03204 | 2.72398 | 5287 ft | 256 kts | 78° |
| 2026-05-04 19:18 | 49.04029 | 2.74834 | 5827 ft | 268 kts | 44° |
| 2026-05-04 19:18 | 49.05625 | 2.76277 | 6620 ft | 272 kts | 15° |
| 2026-05-04 19:18 | 49.07511 | 2.76469 | 7411 ft | 275 kts | 350° |
| 2026-05-04 19:18 | 49.09359 | 2.75629 | 8011 ft | 282 kts | 341° |
| 2026-05-04 19:19 | 49.11219 | 2.74602 | 8752 ft | 286 kts | 341° |
| 2026-05-04 19:19 | 49.13092 | 2.73547 | 9603 ft | 288 kts | 341° |
| 2026-05-04 19:19 | 49.14982 | 2.72478 | 10301 ft | 294 kts | 341° |
| 2026-05-04 19:19 | 49.16952 | 2.71367 | 10515 ft | 318 kts | 341° |
| 2026-05-04 19:20 | 49.19098 | 2.70162 | 10848 ft | 336 kts | 341° |
| 2026-05-04 19:20 | 49.21357 | 2.68895 | 11469 ft | 346 kts | 341° |
| 2026-05-04 19:20 | 49.23606 | 2.67637 | 12197 ft | 351 kts | 341° |
| 2026-05-04 19:20 | 49.25914 | 2.66349 | 13025 ft | 355 kts | 341° |
| 2026-05-04 19:21 | 49.28253 | 2.65046 | 13791 ft | 360 kts | 341° |
| 2026-05-04 19:21 | 49.30615 | 2.63732 | 14535 ft | 363 kts | 341° |
| 2026-05-04 19:21 | 49.32997 | 2.62409 | 15261 ft | 366 kts | 341° |
| 2026-05-04 19:21 | 49.35407 | 2.61069 | 15962 ft | 371 kts | 340° |
| 2026-05-04 19:22 | 49.37846 | 2.59712 | 16649 ft | 375 kts | 340° |
| 2026-05-04 19:22 | 49.40308 | 2.58340 | 17344 ft | 379 kts | 340° |
| 2026-05-04 19:22 | 49.42800 | 2.56950 | 18024 ft | 383 kts | 340° |
| 2026-05-04 19:22 | 49.45318 | 2.55545 | 18622 ft | 387 kts | 340° |
| 2026-05-04 19:23 | 49.47857 | 2.54116 | 19198 ft | 390 kts | 339° |
| 2026-05-04 19:23 | 49.50419 | 2.52668 | 19777 ft | 394 kts | 339° |
| 2026-05-04 19:23 | 49.53006 | 2.51201 | 20270 ft | 399 kts | 339° |
| 2026-05-04 19:23 | 49.55618 | 2.49719 | 20842 ft | 402 kts | 339° |
| 2026-05-04 19:24 | 49.58251 | 2.48223 | 21420 ft | 404 kts | 339° |
| 2026-05-04 19:24 | 49.60895 | 2.46720 | 21987 ft | 407 kts | 339° |
| 2026-05-04 19:24 | 49.63562 | 2.45203 | 22533 ft | 410 kts | 339° |
| 2026-05-04 19:24 | 49.66248 | 2.43672 | 23065 ft | 413 kts | 339° |
| 2026-05-04 19:25 | 49.68959 | 2.42127 | 23572 ft | 417 kts | 339° |
| 2026-05-04 19:25 | 49.71690 | 2.40568 | 24027 ft | 420 kts | 339° |
| 2026-05-04 19:25 | 49.74434 | 2.38999 | 24477 ft | 422 kts | 339° |
| 2026-05-04 19:25 | 49.77198 | 2.37418 | 24941 ft | 425 kts | 339° |
| 2026-05-04 19:26 | 49.79978 | 2.35826 | 25397 ft | 427 kts | 339° |
| 2026-05-04 19:26 | 49.82772 | 2.34223 | 25837 ft | 430 kts | 339° |
| 2026-05-04 19:26 | 49.85585 | 2.32608 | 26278 ft | 433 kts | 339° |
| 2026-05-04 19:26 | 49.88421 | 2.30977 | 26729 ft | 435 kts | 339° |
| 2026-05-04 19:27 | 49.91228 | 2.29360 | 27165 ft | 438 kts | 339° |
| 2026-05-04 19:27 | 49.94096 | 2.27707 | 27593 ft | 441 kts | 339° |
| 2026-05-04 19:27 | 49.96982 | 2.26040 | 27965 ft | 446 kts | 339° |
| 2026-05-04 19:27 | 49.99904 | 2.24351 | 28294 ft | 451 kts | 339° |
| 2026-05-04 19:28 | 50.02853 | 2.22645 | 28740 ft | 453 kts | 338° |
| 2026-05-04 19:28 | 50.05807 | 2.20934 | 29226 ft | 454 kts | 338° |
| 2026-05-04 19:28 | 50.08771 | 2.19214 | 29682 ft | 456 kts | 338° |
| 2026-05-04 19:28 | 50.11763 | 2.17476 | 29977 ft | 461 kts | 338° |
| 2026-05-04 19:29 | 50.14782 | 2.15719 | 30305 ft | 464 kts | 338° |
| 2026-05-04 19:29 | 50.17811 | 2.13954 | 30718 ft | 465 kts | 338° |
| 2026-05-04 19:29 | 50.20844 | 2.12185 | 31066 ft | 467 kts | 338° |
| 2026-05-04 19:29 | 50.23899 | 2.10400 | 31385 ft | 470 kts | 338° |
| 2026-05-04 19:30 | 50.26968 | 2.08604 | 31682 ft | 473 kts | 338° |
| 2026-05-04 19:30 | 50.30060 | 2.06793 | 31904 ft | 477 kts | 338° |
| 2026-05-04 19:30 | 50.33181 | 2.04930 | 31943 ft | 480 kts | 335° |
| 2026-05-04 19:31 | 50.38975 | 1.99945 | 31967 ft | 471 kts | 323° |
| 2026-05-04 19:31 | 50.44027 | 1.93471 | 31986 ft | 469 kts | 316° |
| 2026-05-04 19:32 | 50.48927 | 1.86665 | 31997 ft | 471 kts | 316° |
| 2026-05-04 19:32 | 50.53866 | 1.79866 | 32001 ft | 473 kts | 316° |
| 2026-05-04 19:33 | 50.58822 | 1.73069 | 31994 ft | 472 kts | 316° |
| 2026-05-04 19:33 | 50.63761 | 1.66279 | 31986 ft | 471 kts | 316° |
| 2026-05-04 19:34 | 50.68685 | 1.59483 | 31992 ft | 470 kts | 316° |
| 2026-05-04 19:34 | 50.73590 | 1.52688 | 31994 ft | 469 kts | 316° |
| 2026-05-04 19:35 | 50.78494 | 1.45879 | 32002 ft | 469 kts | 316° |
| 2026-05-04 19:35 | 50.83401 | 1.39055 | 32009 ft | 470 kts | 316° |
| 2026-05-04 19:36 | 50.88319 | 1.32197 | 32013 ft | 471 kts | 316° |
| 2026-05-04 19:36 | 50.93233 | 1.25323 | 32014 ft | 471 kts | 316° |
| 2026-05-04 19:37 | 50.98146 | 1.18429 | 32172 ft | 473 kts | 316° |
| 2026-05-04 19:37 | 51.00611 | 1.14964 | 32539 ft | 474 kts | 316° |
| 2026-05-04 19:37 | 51.03066 | 1.11476 | 32891 ft | 473 kts | 314° |
| 2026-05-04 19:37 | 51.05270 | 1.07619 | 33186 ft | 471 kts | 305° |
| 2026-05-04 19:38 | 51.07068 | 1.03349 | 33448 ft | 470 kts | 297° |
| 2026-05-04 19:38 | 51.08539 | 0.98646 | 33787 ft | 468 kts | 289° |
| 2026-05-04 19:38 | 51.09706 | 0.93838 | 34156 ft | 466 kts | 288° |
| 2026-05-04 19:38 | 51.10855 | 0.89017 | 34392 ft | 467 kts | 288° |
| 2026-05-04 19:39 | 51.12008 | 0.84180 | 34618 ft | 468 kts | 288° |
| 2026-05-04 19:39 | 51.13167 | 0.79344 | 34872 ft | 468 kts | 288° |
| 2026-05-04 19:39 | 51.14334 | 0.74504 | 35137 ft | 468 kts | 289° |
| 2026-05-04 19:39 | 51.15491 | 0.69729 | 35392 ft | 468 kts | 289° |